Time,TemperatureF,DewpointF,PressureIn,WindDirection,WindDirectionDegrees,WindSpeedMPH,WindSpeedGustMPH,Humidity,HourlyPrecipIn,Conditions,Clouds,dailyrainin,SoftwareType,DateUTC
2013-09-11 00:01:00,75.2,72.4,29.98,SE,143,0.0,0.0,91,0.00,RA,,0.00,WeatherDisplay:10.37,2013-09-11 04:01:00,
2013-09-11 00:02:00,75.1,72.3,29.98,SE,142,0.0,0.0,91,0.00,RA,,0.00,WeatherDisplay:10.37,2013-09-11 04:02:00,
2013-09-11 00:07:00,75.0,72.2,29.98,SE,142,0.0,0.0,91,0.00,RA,,0.00,WeatherDisplay:10.37,2013-09-11 04:07:00,
2013-09-11 00:12:00,74.9,72.1,29.98,SE,143,0.0,0.0,91,0.00,,,0.00,WeatherDisplay:10.37,2013-09-11 04:12:00,
2013-09-11 00:17:00,74.7,71.9,29.98,SE,143,0.0,0.0,91,0.00,,,0.00,WeatherDisplay:10.37,2013-09-11 04:17:00,
2013-09-11 00:22:00,74.5,71.7,29.98,SE,143,0.0,0.0,91,0.00,,,0.00,WeatherDisplay:10.37,2013-09-11 04:22:00,
2013-09-11 00:27:00,74.3,71.5,29.98,ENE,78,0.0,0.0,91,0.00,,,0.00,WeatherDisplay:10.37,2013-09-11 04:27:00,
2013-09-11 00:32:00,74.3,71.5,29.99,ENE,78,0.0,0.0,91,0.00,,,0.00,WeatherDisplay:10.37,2013-09-11 04:32:00,
2013-09-11 00:37:00,74.2,71.4,29.99,ENE,78,0.0,0.0,91,0.00,,,0.00,WeatherDisplay:10.37,2013-09-11 04:37:00,
2013-09-11 00:42:00,74.1,71.3,29.99,SE,142,0.0,0.0,91,0.00,,,0.00,WeatherDisplay:10.37,2013-09-11 04:42:00,
2013-09-11 00:47:00,74.1,71.0,29.98,SE,143,0.0,0.0,90,0.00,,,0.00,WeatherDisplay:10.37,2013-09-11 04:47:00,
2013-09-11 00:52:00,74.1,71.0,29.99,SE,142,0.0,0.0,90,0.00,,,0.00,WeatherDisplay:10.37,2013-09-11 04:52:00,
2013-09-11 00:57:00,74.1,71.0,29.99,SE,142,0.0,0.0,90,0.00,,,0.00,WeatherDisplay:10.37,2013-09-11 04:57:00,
2013-09-11 01:02:00,74.1,71.0,29.98,SE,143,0.0,0.0,90,0.00,,,0.00,WeatherDisplay:10.37,2013-09-11 05:02:00,
2013-09-11 01:07:00,74.2,71.1,29.98,SE,142,0.0,0.0,90,0.00,,,0.00,WeatherDisplay:10.37,2013-09-11 05:07:00,
2013-09-11 01:12:00,74.2,71.1,29.98,SE,142,0.0,0.0,90,0.00,,,0.00,WeatherDisplay:10.37,2013-09-11 05:12:00,
2013-09-11 01:17:00,74.2,71.1,29.98,SE,142,0.0,0.0,90,0.00,,,0.00,WeatherDisplay:10.37,2013-09-11 05:17:00,
2013-09-11 01:22:00,74.2,71.1,29.98,SE,143,0.0,0.0,90,0.00,,,0.00,WeatherDisplay:10.37,2013-09-11 05:22:00,
2013-09-11 01:27:00,74.2,71.1,29.98,SE,142,0.0,0.0,90,0.00,,,0.00,WeatherDisplay:10.37,2013-09-11 05:27:00,
2013-09-11 01:32:00,74.1,71.0,29.98,SE,124,0.0,0.0,90,0.00,,,0.00,WeatherDisplay:10.37,2013-09-11 05:32:00,
2013-09-11 01:37:00,74.0,70.9,29.98,SE,124,0.0,0.0,90,0.00,,,0.00,WeatherDisplay:10.37,2013-09-11 05:37:00,
2013-09-11 01:42:00,74.0,70.9,29.98,ESE,118,0.0,0.0,90,0.00,,,0.00,WeatherDisplay:10.37,2013-09-11 05:42:00,
2013-09-11 01:47:00,73.9,70.8,29.98,ESE,118,0.0,0.0,90,0.00,,,0.00,WeatherDisplay:10.37,2013-09-11 05:47:00,
2013-09-11 01:52:00,73.9,70.8,29.98,ESE,119,0.0,0.0,90,0.00,,,0.00,WeatherDisplay:10.37,2013-09-11 05:52:00,
2013-09-11 01:57:00,73.8,70.7,29.98,ESE,118,0.0,0.0,90,0.00,,,0.00,WeatherDisplay:10.37,2013-09-11 05:57:00,
2013-09-11 02:02:00,73.7,70.6,29.98,ESE,118,0.0,0.0,90,0.00,,,0.00,WeatherDisplay:10.37,2013-09-11 06:02:00,
2013-09-11 02:07:00,73.8,70.7,29.98,ESE,119,0.0,0.0,90,0.00,,,0.00,WeatherDisplay:10.37,2013-09-11 06:07:00,
2013-09-11 02:12:00,73.7,70.6,29.98,ESE,119,0.0,0.0,90,0.00,,,0.00,WeatherDisplay:10.37,2013-09-11 06:12:00,
2013-09-11 02:17:00,73.6,70.5,29.98,ESE,118,0.0,0.0,90,0.00,,,0.00,WeatherDisplay:10.37,2013-09-11 06:17:00,
2013-09-11 02:22:00,73.5,70.4,29.98,ESE,118,0.0,0.0,90,0.00,,,0.00,WeatherDisplay:10.37,2013-09-11 06:22:00,
2013-09-11 02:27:00,73.5,70.4,29.98,ESE,118,0.0,0.0,90,0.00,,,0.00,WeatherDisplay:10.37,2013-09-11 06:27:00,
2013-09-11 02:32:00,73.5,70.4,29.98,ESE,118,0.0,0.0,90,0.00,,,0.00,WeatherDisplay:10.37,2013-09-11 06:32:00,
2013-09-11 02:37:00,73.5,70.4,29.98,ESE,118,0.0,0.0,90,0.00,,,0.00,WeatherDisplay:10.37,2013-09-11 06:37:00,
2013-09-11 02:42:00,73.5,70.4,29.98,ESE,118,0.0,0.0,90,0.00,,,0.00,WeatherDisplay:10.37,2013-09-11 06:42:00,
2013-09-11 02:47:00,73.5,70.1,29.99,ESE,119,0.0,0.0,89,0.00,,,0.00,WeatherDisplay:10.37,2013-09-11 06:47:00,
2013-09-11 02:52:00,73.6,70.2,29.98,ESE,120,0.0,0.0,89,0.00,,,0.00,WeatherDisplay:10.37,2013-09-11 06:52:00,
2013-09-11 02:57:00,73.8,70.4,29.99,ESE,120,0.0,0.0,89,0.00,,,0.00,WeatherDisplay:10.37,2013-09-11 06:57:00,
2013-09-11 03:02:00,73.9,70.5,29.98,ESE,120,0.0,0.0,89,0.00,,,0.00,WeatherDisplay:10.37,2013-09-11 07:02:00,
2013-09-11 03:07:00,73.9,70.5,29.98,ESE,120,0.0,0.0,89,0.00,,,0.00,WeatherDisplay:10.37,2013-09-11 07:07:00,
2013-09-11 03:12:00,73.9,70.5,29.98,ESE,120,0.0,0.0,89,0.00,,,0.00,WeatherDisplay:10.37,2013-09-11 07:12:00,
2013-09-11 03:17:00,74.0,70.6,29.98,ESE,120,0.0,0.0,89,0.00,,,0.00,WeatherDisplay:10.37,2013-09-11 07:17:00,
2013-09-11 03:22:00,74.0,70.6,29.98,ESE,120,0.0,0.0,89,0.00,,,0.00,WeatherDisplay:10.37,2013-09-11 07:22:00,
2013-09-11 03:27:00,74.1,70.6,29.98,ESE,115,0.0,0.0,89,0.00,,,0.00,WeatherDisplay:10.37,2013-09-11 07:27:00,
2013-09-11 03:32:00,74.1,70.6,29.98,ESE,105,0.0,0.0,89,0.00,,,0.00,WeatherDisplay:10.37,2013-09-11 07:32:00,
2013-09-11 03:37:00,74.2,71.1,29.98,ESE,105,0.0,0.0,90,0.00,,,0.00,WeatherDisplay:10.37,2013-09-11 07:37:00,
2013-09-11 03:42:00,74.1,71.0,29.98,ESE,106,0.0,0.0,90,0.00,,,0.00,WeatherDisplay:10.37,2013-09-11 07:42:00,
2013-09-11 03:47:00,74.1,71.0,29.98,ESE,107,1.1,1.1,90,0.00,,,0.00,WeatherDisplay:10.37,2013-09-11 07:47:00,
2013-09-11 03:52:00,74.1,71.0,29.98,ESE,107,0.0,0.0,90,0.00,,,0.00,WeatherDisplay:10.37,2013-09-11 07:52:00,
2013-09-11 03:57:00,74.1,71.0,29.98,ESE,107,0.0,0.0,90,0.00,,,0.00,WeatherDisplay:10.37,2013-09-11 07:57:00,
2013-09-11 04:02:00,74.1,71.0,29.98,East,84,0.0,0.3,90,0.00,,,0.00,WeatherDisplay:10.37,2013-09-11 08:02:00,
2013-09-11 04:07:00,74.2,71.1,29.98,ESE,118,1.1,0.0,90,0.00,,,0.00,WeatherDisplay:10.37,2013-09-11 08:07:00,
2013-09-11 04:12:00,74.3,71.2,29.98,ESE,118,0.0,0.0,90,0.00,,,0.00,WeatherDisplay:10.37,2013-09-11 08:12:00,
2013-09-11 04:17:00,74.2,71.1,29.98,ESE,107,0.0,0.0,90,0.00,,,0.00,WeatherDisplay:10.37,2013-09-11 08:17:00,
2013-09-11 04:22:00,74.2,71.1,29.98,ESE,107,0.0,0.0,90,0.00,,,0.00,WeatherDisplay:10.37,2013-09-11 08:22:00,
2013-09-11 04:27:00,74.2,71.1,29.98,ESE,107,0.0,0.0,90,0.00,,,0.00,WeatherDisplay:10.37,2013-09-11 08:27:00,
2013-09-11 04:32:00,74.2,71.1,29.98,SSE,150,2.3,0.0,90,0.00,,,0.00,WeatherDisplay:10.37,2013-09-11 08:32:00,
2013-09-11 04:37:00,74.2,71.1,29.98,SSE,150,0.0,0.0,90,0.00,,,0.00,WeatherDisplay:10.37,2013-09-11 08:37:00,
2013-09-11 04:42:00,74.2,70.7,29.98,SSE,150,0.0,0.0,89,0.00,,,0.00,WeatherDisplay:10.37,2013-09-11 08:42:00,
2013-09-11 04:47:00,74.2,71.1,29.98,SSE,150,0.0,0.0,90,0.00,,,0.00,WeatherDisplay:10.37,2013-09-11 08:47:00,
2013-09-11 04:52:00,74.1,70.6,29.98,SSE,151,0.0,0.0,89,0.00,,,0.00,WeatherDisplay:10.37,2013-09-11 08:52:00,
2013-09-11 04:57:00,74.2,70.7,29.98,SSE,150,0.0,0.0,89,0.00,,,0.00,WeatherDisplay:10.37,2013-09-11 08:57:00,
2013-09-11 05:02:00,74.2,70.7,29.98,SSE,150,0.0,0.0,89,0.00,,,0.00,WeatherDisplay:10.37,2013-09-11 09:02:00,
2013-09-11 05:07:00,74.2,70.7,29.99,SSE,150,0.0,0.0,89,0.00,,,0.00,WeatherDisplay:10.37,2013-09-11 09:07:00,
2013-09-11 05:12:00,74.2,70.7,29.99,SSE,151,0.0,0.0,89,0.00,,,0.00,WeatherDisplay:10.37,2013-09-11 09:12:00,
2013-09-11 05:17:00,74.2,70.7,29.99,SSE,150,0.0,0.0,89,0.00,,,0.00,WeatherDisplay:10.37,2013-09-11 09:17:00,
2013-09-11 05:22:00,74.1,70.6,29.99,SSE,150,0.0,0.0,89,0.00,,,0.00,WeatherDisplay:10.37,2013-09-11 09:22:00,
2013-09-11 05:27:00,74.1,70.6,29.99,SSE,150,0.0,0.0,89,0.00,,,0.00,WeatherDisplay:10.37,2013-09-11 09:27:00,
2013-09-11 05:32:00,74.0,70.6,29.99,SSE,150,0.0,0.0,89,0.00,,,0.00,WeatherDisplay:10.37,2013-09-11 09:32:00,
2013-09-11 05:37:00,73.9,70.5,29.99,SSE,150,0.0,0.0,89,0.00,,,0.00,WeatherDisplay:10.37,2013-09-11 09:37:00,
2013-09-11 05:42:00,73.8,70.4,29.99,SSE,150,0.0,0.0,89,0.00,,,0.00,WeatherDisplay:10.37,2013-09-11 09:42:00,
2013-09-11 05:47:00,73.7,70.3,30.00,SSE,151,0.0,0.0,89,0.00,,,0.00,WeatherDisplay:10.37,2013-09-11 09:47:00,
2013-09-11 05:52:00,73.6,70.2,30.00,SSE,150,0.0,0.0,89,0.00,,,0.00,WeatherDisplay:10.37,2013-09-11 09:52:00,
2013-09-11 05:57:00,73.5,70.1,30.00,SSE,150,0.0,0.0,89,0.00,,,0.00,WeatherDisplay:10.37,2013-09-11 09:57:00,
2013-09-11 06:02:00,73.3,69.9,30.00,SSE,150,0.0,0.0,89,0.00,,,0.00,WeatherDisplay:10.37,2013-09-11 10:02:00,
2013-09-11 06:07:00,73.2,69.8,30.00,SSE,150,0.0,0.0,89,0.00,,,0.00,WeatherDisplay:10.37,2013-09-11 10:07:00,
2013-09-11 06:13:00,73.0,69.6,30.00,SSE,150,0.0,0.0,89,0.00,,,0.00,WeatherDisplay:10.37,2013-09-11 10:13:00,
2013-09-11 06:18:00,72.9,69.5,30.00,SSE,150,0.0,0.0,89,0.00,CLR,,0.00,WeatherDisplay:10.37,2013-09-11 10:18:00,
2013-09-11 06:23:00,72.7,69.3,30.01,SSE,150,0.0,0.0,89,0.00,CLR,,0.00,WeatherDisplay:10.37,2013-09-11 10:23:00,
2013-09-11 06:28:00,72.6,68.8,30.01,SSE,150,0.0,0.0,88,0.00,CLR,,0.00,WeatherDisplay:10.37,2013-09-11 10:28:00,
2013-09-11 06:33:00,72.5,68.7,30.01,SSE,150,0.0,0.0,88,0.00,CLR,,0.00,WeatherDisplay:10.37,2013-09-11 10:33:00,
2013-09-11 06:38:00,72.5,68.7,30.01,SSE,150,0.0,0.0,88,0.00,CLR,,0.00,WeatherDisplay:10.37,2013-09-11 10:38:00,
2013-09-11 06:43:00,72.4,68.6,30.01,SSE,150,0.0,0.0,88,0.00,CLR,,0.00,WeatherDisplay:10.37,2013-09-11 10:43:00,
2013-09-11 06:48:00,72.3,68.5,30.01,SSE,151,0.0,0.0,88,0.00,CLR,,0.00,WeatherDisplay:10.37,2013-09-11 10:48:00,
2013-09-11 06:53:00,72.2,68.4,30.01,SSE,150,0.0,0.0,88,0.00,CLR,,0.00,WeatherDisplay:10.37,2013-09-11 10:53:00,
2013-09-11 06:58:00,72.1,68.3,30.01,SSE,150,0.0,0.0,88,0.00,CLR,,0.00,WeatherDisplay:10.37,2013-09-11 10:58:00,
2013-09-11 07:03:00,72.0,68.2,30.01,SSE,150,0.0,0.0,88,0.00,CLR,,0.00,WeatherDisplay:10.37,2013-09-11 11:03:00,
2013-09-11 07:08:00,72.0,68.2,30.02,SSE,150,0.0,0.0,88,0.00,CLR,,0.00,WeatherDisplay:10.37,2013-09-11 11:08:00,
2013-09-11 07:13:00,72.0,68.2,30.02,SSE,151,0.0,0.0,88,0.00,CLR,,0.00,WeatherDisplay:10.37,2013-09-11 11:13:00,
2013-09-11 07:18:00,72.1,68.3,30.01,SSE,150,0.0,0.0,88,0.00,CLR,,0.00,WeatherDisplay:10.37,2013-09-11 11:18:00,
2013-09-11 07:23:00,72.2,68.4,30.02,SSE,150,0.0,0.0,88,0.00,CLR,,0.00,WeatherDisplay:10.37,2013-09-11 11:23:00,
2013-09-11 07:28:00,72.2,68.4,30.02,SSE,150,0.0,0.0,88,0.00,CLR,,0.00,WeatherDisplay:10.37,2013-09-11 11:28:00,
2013-09-11 07:33:00,72.3,68.5,30.02,SSE,150,0.0,0.0,88,0.00,CLR,,0.00,WeatherDisplay:10.37,2013-09-11 11:33:00,
2013-09-11 07:38:00,72.3,68.5,30.02,SSE,151,0.0,0.0,88,0.00,CLR,,0.00,WeatherDisplay:10.37,2013-09-11 11:38:00,
2013-09-11 07:43:00,72.3,68.5,30.01,SSE,151,0.0,0.0,88,0.00,CLR,,0.00,WeatherDisplay:10.37,2013-09-11 11:43:00,
2013-09-11 07:48:00,72.6,68.8,30.01,SSE,150,0.0,0.0,88,0.00,CLR,,0.00,WeatherDisplay:10.37,2013-09-11 11:48:00,
2013-09-11 07:53:00,72.7,68.9,30.01,SSE,148,0.0,0.0,88,0.00,CLR,,0.00,WeatherDisplay:10.37,2013-09-11 11:53:00,
2013-09-11 07:58:00,73.0,69.2,30.01,ESE,112,0.0,0.0,88,0.00,CLR,,0.00,WeatherDisplay:10.37,2013-09-11 11:58:00,
2013-09-11 08:03:00,73.3,69.5,30.01,South,189,0.0,0.0,88,0.00,CLR,,0.00,WeatherDisplay:10.37,2013-09-11 12:03:00,
2013-09-11 08:08:00,73.6,69.8,30.01,South,189,0.0,0.0,88,0.00,CLR,,0.00,WeatherDisplay:10.37,2013-09-11 12:08:00,
2013-09-11 08:13:00,73.9,70.1,30.01,West,276,0.0,0.0,88,0.00,CLR,,0.00,WeatherDisplay:10.37,2013-09-11 12:13:00,
2013-09-11 08:18:00,74.3,70.5,30.01,SSE,158,0.0,0.0,88,0.00,CLR,,0.00,WeatherDisplay:10.37,2013-09-11 12:18:00,
2013-09-11 08:23:00,74.6,70.8,30.01,ESE,122,1.1,1.1,88,0.00,CLR,,0.00,WeatherDisplay:10.37,2013-09-11 12:23:00,
2013-09-11 08:28:00,74.9,71.1,30.01,SSE,148,0.0,0.0,88,0.00,CLR,,0.00,WeatherDisplay:10.37,2013-09-11 12:28:00,
2013-09-11 08:33:00,75.2,71.4,30.01,SE,125,0.0,0.0,88,0.00,CLR,,0.00,WeatherDisplay:10.37,2013-09-11 12:33:00,
2013-09-11 08:38:00,75.6,72.1,30.01,SE,137,1.1,1.1,89,0.00,CLR,,0.00,WeatherDisplay:10.37,2013-09-11 12:38:00,
2013-09-11 08:43:00,75.8,73.0,30.01,ENE,66,0.0,0.0,91,0.00,CLR,,0.00,WeatherDisplay:10.37,2013-09-11 12:43:00,
2013-09-11 08:48:00,76.2,73.4,30.01,SSE,153,0.0,0.0,91,0.00,CLR,,0.00,WeatherDisplay:10.37,2013-09-11 12:48:00,
2013-09-11 08:53:00,76.6,74.1,30.01,South,172,1.1,1.1,92,0.00,CLR,,0.00,WeatherDisplay:10.37,2013-09-11 12:53:00,
2013-09-11 08:58:00,77.1,74.6,30.01,SSE,149,0.0,0.0,92,0.00,CLR,,0.00,WeatherDisplay:10.37,2013-09-11 12:58:00,
2013-09-11 09:03:00,77.4,74.9,30.01,SSE,149,0.0,0.0,92,0.00,CLR,,0.00,WeatherDisplay:10.37,2013-09-11 13:03:00,
2013-09-11 09:08:00,77.6,75.1,30.01,SSE,165,2.3,2.3,92,0.00,CLR,,0.00,WeatherDisplay:10.37,2013-09-11 13:08:00,
2013-09-11 09:13:00,78.1,75.6,30.01,SE,139,1.0,1.0,92,0.00,CLR,,0.00,WeatherDisplay:10.37,2013-09-11 13:13:00,
2013-09-11 09:18:00,78.7,75.8,30.01,SE,130,1.1,0.0,91,0.00,CLR,,0.00,WeatherDisplay:10.37,2013-09-11 13:18:00,
2013-09-11 09:23:00,79.2,76.3,30.01,ESE,103,3.5,3.5,91,0.00,CLR,,0.00,WeatherDisplay:10.37,2013-09-11 13:23:00,
2013-09-11 09:28:00,79.5,76.3,30.01,South,176,1.1,0.0,90,0.00,CLR,,0.00,WeatherDisplay:10.37,2013-09-11 13:28:00,
2013-09-11 09:33:00,79.9,76.7,30.00,SE,131,1.1,1.1,90,0.00,CLR,,0.00,WeatherDisplay:10.37,2013-09-11 13:33:00,
2013-09-11 09:38:00,80.4,76.5,30.00,SE,142,1.1,1.1,88,0.00,CLR,,0.00,WeatherDisplay:10.37,2013-09-11 13:38:00,
2013-09-11 09:43:00,81.0,77.1,30.00,SE,137,1.1,0.0,88,0.00,CLR,,0.00,WeatherDisplay:10.37,2013-09-11 13:43:00,
2013-09-11 09:48:00,81.4,77.2,30.00,ESE,120,1.1,1.1,87,0.00,CLR,,0.00,WeatherDisplay:10.37,2013-09-11 13:48:00,
2013-09-11 09:53:00,81.6,77.4,30.00,SSW,193,2.3,2.3,87,0.00,CLR,,0.00,WeatherDisplay:10.37,2013-09-11 13:53:00,
2013-09-11 09:58:00,82.0,77.7,30.00,SSW,200,3.5,3.5,87,0.00,CLR,,0.00,WeatherDisplay:10.37,2013-09-11 13:58:00,
2013-09-11 10:03:00,82.6,77.6,30.00,SE,125,2.3,2.3,85,0.00,CLR,,0.00,WeatherDisplay:10.37,2013-09-11 14:03:00,
2013-09-11 10:08:00,83.3,78.7,30.00,SE,146,0.0,0.0,86,0.00,CLR,,0.00,WeatherDisplay:10.37,2013-09-11 14:08:00,
2013-09-11 10:13:00,83.8,78.1,30.00,SSW,203,0.0,0.0,83,0.00,CLR,,0.00,WeatherDisplay:10.37,2013-09-11 14:13:00,
2013-09-11 10:18:00,84.3,78.9,30.00,East,98,0.0,0.0,84,0.00,CLR,,0.00,WeatherDisplay:10.37,2013-09-11 14:18:00,
2013-09-11 10:23:00,84.7,79.0,30.00,SSW,195,1.1,1.1,83,0.00,CLR,,0.00,WeatherDisplay:10.37,2013-09-11 14:23:00,
2013-09-11 10:28:00,85.1,78.6,30.00,SSW,212,5.0,5.0,81,0.00,CLR,,0.00,WeatherDisplay:10.37,2013-09-11 14:28:00,
2013-09-11 10:33:00,85.3,78.8,30.00,NNW,345,1.1,1.1,81,0.00,CLR,,0.00,WeatherDisplay:10.37,2013-09-11 14:33:00,
2013-09-11 10:38:00,85.4,78.1,29.99,SE,144,2.3,2.3,79,0.00,CLR,,0.00,WeatherDisplay:10.37,2013-09-11 14:38:00,
2013-09-11 10:43:00,85.7,78.8,29.99,SSE,163,2.0,2.0,80,0.00,CLR,,0.00,WeatherDisplay:10.37,2013-09-11 14:43:00,
2013-09-11 10:48:00,86.4,78.3,29.99,East,91,1.1,1.1,77,0.00,CLR,,0.00,WeatherDisplay:10.37,2013-09-11 14:48:00,
2013-09-11 10:53:00,86.9,78.4,30.00,West,280,0.0,0.0,76,0.00,CLR,,0.00,WeatherDisplay:10.37,2013-09-11 14:53:00,
2013-09-11 10:58:00,87.5,78.6,29.99,ESE,111,1.1,1.1,75,0.00,CLR,,0.00,WeatherDisplay:10.37,2013-09-11 14:58:00,
2013-09-11 11:04:00,87.5,79.0,29.99,SE,125,0.0,0.0,76,0.00,CLR,,0.00,WeatherDisplay:10.37,2013-09-11 15:04:00,
2013-09-11 11:09:00,88.1,79.2,29.99,SE,126,0.0,0.0,75,0.00,CLR,,0.00,WeatherDisplay:10.37,2013-09-11 15:09:00,
2013-09-11 11:14:00,88.3,78.5,29.99,ESE,115,1.1,0.0,73,0.00,CLR,,0.00,WeatherDisplay:10.37,2013-09-11 15:14:00,
2013-09-11 11:19:00,88.4,78.6,29.99,South,170,1.0,1.0,73,0.00,CLR,,0.00,WeatherDisplay:10.37,2013-09-11 15:19:00,
2013-09-11 11:24:00,88.8,78.6,29.99,South,190,2.3,2.3,72,0.00,CLR,,0.00,WeatherDisplay:10.37,2013-09-11 15:24:00,
2013-09-11 11:29:00,89.1,78.9,29.98,SSW,195,2.0,2.0,72,0.00,CLR,,0.00,WeatherDisplay:10.37,2013-09-11 15:29:00,
2013-09-11 11:34:00,89.0,76.6,29.98,ESE,114,3.5,3.5,67,0.00,CLR,,0.00,WeatherDisplay:10.37,2013-09-11 15:34:00,
2013-09-11 11:39:00,89.0,77.5,29.98,SW,233,3.5,3.5,69,0.00,CLR,,0.00,WeatherDisplay:10.37,2013-09-11 15:39:00,
2013-09-11 11:44:00,88.9,78.3,29.98,West,274,0.0,0.0,71,0.00,CLR,,0.00,WeatherDisplay:10.37,2013-09-11 15:44:00,
2013-09-11 11:49:00,89.4,79.2,29.98,South,185,0.0,0.0,72,0.00,CLR,,0.00,WeatherDisplay:10.37,2013-09-11 15:49:00,
2013-09-11 11:54:00,90.0,78.0,29.98,SE,125,3.5,3.5,68,0.00,CLR,,0.00,WeatherDisplay:10.37,2013-09-11 15:54:00,
2013-09-11 11:59:00,90.1,79.8,29.98,WSW,257,1.1,0.0,72,0.00,CLR,,0.00,WeatherDisplay:10.37,2013-09-11 15:59:00,
2013-09-11 12:04:00,90.2,77.8,29.98,SE,132,3.5,3.5,67,0.00,CLR,,0.00,WeatherDisplay:10.37,2013-09-11 16:04:00,
2013-09-11 12:09:00,90.4,77.5,29.98,SSW,212,2.3,2.3,66,0.00,CLR,,0.00,WeatherDisplay:10.37,2013-09-11 16:09:00,
2013-09-11 12:14:00,90.0,77.1,29.98,SE,134,1.1,1.1,66,0.00,CLR,,0.00,WeatherDisplay:10.37,2013-09-11 16:14:00,
2013-09-11 12:19:00,90.4,77.5,29.98,NW,312,3.5,3.5,66,0.00,CLR,,0.00,WeatherDisplay:10.37,2013-09-11 16:19:00,
2013-09-11 12:24:00,90.6,77.7,29.98,West,271,5.8,5.8,66,0.00,CLR,,0.00,WeatherDisplay:10.37,2013-09-11 16:24:00,
2013-09-11 12:30:00,90.8,76.9,29.97,ENE,64,3.5,3.5,64,0.00,CLR,,0.00,WeatherDisplay:10.37,2013-09-11 16:30:00,
2013-09-11 12:35:00,91.3,77.9,29.97,SSE,165,0.0,0.0,65,0.00,CLR,,0.00,WeatherDisplay:10.37,2013-09-11 16:35:00,
2013-09-11 12:40:00,91.6,77.2,29.97,NW,322,2.3,2.3,63,0.00,CLR,,0.00,WeatherDisplay:10.37,2013-09-11 16:40:00,
2013-09-11 12:45:00,91.6,77.2,29.97,West,262,3.5,3.5,63,0.00,CLR,,0.00,WeatherDisplay:10.37,2013-09-11 16:45:00,
2013-09-11 12:50:00,91.0,77.6,29.97,ENE,64,1.1,1.1,65,0.00,CLR,,0.00,WeatherDisplay:10.37,2013-09-11 16:50:00,
2013-09-11 12:55:00,90.4,78.4,29.97,NE,44,3.5,3.5,68,0.00,CLR,,0.00,WeatherDisplay:10.37,2013-09-11 16:55:00,
2013-09-11 13:00:00,89.7,77.7,29.97,WNW,297,1.1,1.1,68,0.00,CLR,,0.00,WeatherDisplay:10.37,2013-09-11 17:00:00,
2013-09-11 13:05:00,89.2,78.1,29.97,North,349,0.0,0.0,70,0.00,CLR,,0.00,WeatherDisplay:10.37,2013-09-11 17:05:00,
2013-09-11 13:10:00,89.0,77.5,29.97,North,355,1.1,1.1,69,0.00,CLR,,0.00,WeatherDisplay:10.37,2013-09-11 17:10:00,
2013-09-11 13:15:00,88.7,77.2,29.96,West,264,1.1,1.1,69,0.00,CLR,,0.00,WeatherDisplay:10.37,2013-09-11 17:15:00,
2013-09-11 13:20:00,89.0,77.1,29.97,West,281,2.3,2.3,68,0.00,CLR,,0.00,WeatherDisplay:10.37,2013-09-11 17:20:00,
2013-09-11 13:25:00,89.4,78.8,29.96,ESE,104,1.1,0.0,71,0.00,CLR,,0.00,WeatherDisplay:10.37,2013-09-11 17:25:00,
2013-09-11 13:30:00,89.3,77.8,29.96,NE,40,3.5,3.5,69,0.00,CLR,,0.00,WeatherDisplay:10.37,2013-09-11 17:30:00,
2013-09-11 13:35:00,89.5,78.8,29.96,East,101,0.0,0.0,71,0.00,CLR,,0.00,WeatherDisplay:10.37,2013-09-11 17:35:00,
2013-09-11 13:40:00,89.9,80.5,29.96,South,183,0.0,0.0,74,0.00,CLR,,0.00,WeatherDisplay:10.37,2013-09-11 17:40:00,
2013-09-11 13:45:00,90.0,78.9,29.96,West,280,3.5,3.5,70,0.00,CLR,,0.00,WeatherDisplay:10.37,2013-09-11 17:45:00,
2013-09-11 13:50:00,90.1,78.6,29.96,West,260,3.5,3.5,69,0.00,CLR,,0.00,WeatherDisplay:10.37,2013-09-11 17:50:00,
2013-09-11 13:55:00,90.1,78.1,29.96,West,270,3.5,3.5,68,0.00,CLR,,0.00,WeatherDisplay:10.37,2013-09-11 17:55:00,
2013-09-11 14:01:00,90.1,79.8,29.95,West,270,0.0,0.0,72,0.00,CLR,,0.00,WeatherDisplay:10.37,2013-09-11 18:01:00,
2013-09-11 14:06:00,90.1,78.6,29.95,West,270,0.0,0.0,69,0.00,,,0.00,WeatherDisplay:10.37,2013-09-11 18:06:00,
2013-09-11 14:11:00,90.2,76.8,29.95,SW,226,3.5,3.5,65,0.00,,,0.00,WeatherDisplay:10.37,2013-09-11 18:11:00,
2013-09-11 14:16:00,90.2,78.2,29.94,SSE,152,0.0,0.0,68,0.00,,,0.00,WeatherDisplay:10.37,2013-09-11 18:16:00,
2013-09-11 14:21:00,89.9,78.4,29.94,ENE,78,1.0,0.0,69,0.00,,,0.00,WeatherDisplay:10.37,2013-09-11 18:21:00,
2013-09-11 14:26:00,89.2,77.3,29.94,ESE,112,0.0,0.0,68,0.00,,,0.00,WeatherDisplay:10.37,2013-09-11 18:26:00,
2013-09-11 14:31:00,88.8,76.9,29.94,East,89,2.3,0.0,68,0.00,,,0.00,WeatherDisplay:10.37,2013-09-11 18:31:00,
2013-09-11 14:36:00,88.8,78.2,29.94,WSW,253,0.0,0.0,71,0.00,,,0.00,WeatherDisplay:10.37,2013-09-11 18:36:00,
2013-09-11 14:41:00,88.8,76.4,29.94,SE,132,0.0,0.0,67,0.00,,,0.00,WeatherDisplay:10.37,2013-09-11 18:41:00,
2013-09-11 14:46:00,88.3,77.7,29.94,NNW,345,0.0,0.0,71,0.00,,,0.00,WeatherDisplay:10.37,2013-09-11 18:46:00,
2013-09-11 14:51:00,88.4,78.2,29.93,SSE,166,0.0,0.0,72,0.00,,,0.00,WeatherDisplay:10.37,2013-09-11 18:51:00,
2013-09-11 14:56:00,89.1,80.1,29.93,SSE,167,0.0,0.0,75,0.00,,,0.00,WeatherDisplay:10.37,2013-09-11 18:56:00,
2013-09-11 15:02:00,89.6,78.9,29.93,SSE,166,0.0,0.0,71,0.00,,,0.00,WeatherDisplay:10.37,2013-09-11 19:02:00,
2013-09-11 15:07:00,90.0,79.8,29.93,SSE,163,0.0,0.0,72,0.00,,,0.00,WeatherDisplay:10.37,2013-09-11 19:07:00,
2013-09-11 15:12:00,90.3,79.6,29.92,WSW,243,0.0,0.1,71,0.00,,,0.00,WeatherDisplay:10.37,2013-09-11 19:12:00,
2013-09-11 15:17:00,90.6,78.1,29.92,NW,323,2.3,2.3,67,0.00,,,0.00,WeatherDisplay:10.37,2013-09-11 19:17:00,
2013-09-11 15:22:00,91.4,79.8,29.92,NW,321,0.0,0.0,69,0.00,,,0.00,WeatherDisplay:10.37,2013-09-11 19:22:00,
2013-09-11 15:27:00,91.5,78.1,29.92,NW,312,3.5,3.5,65,0.00,,,0.00,WeatherDisplay:10.37,2013-09-11 19:27:00,
2013-09-11 15:32:00,91.7,77.8,29.92,NNW,336,0.0,0.0,64,0.00,,,0.00,WeatherDisplay:10.37,2013-09-11 19:32:00,
2013-09-11 15:37:00,92.0,79.0,29.92,ESE,107,3.5,3.5,66,0.00,,,0.00,WeatherDisplay:10.37,2013-09-11 19:37:00,
2013-09-11 15:42:00,91.6,79.5,29.91,ESE,121,2.3,2.3,68,0.00,,,0.00,WeatherDisplay:10.37,2013-09-11 19:42:00,
2013-09-11 15:47:00,91.6,78.2,29.91,ESE,122,0.0,0.0,65,0.00,,,0.00,WeatherDisplay:10.37,2013-09-11 19:47:00,
2013-09-11 15:52:00,92.3,79.3,29.90,SE,124,0.0,0.0,66,0.00,,,0.00,WeatherDisplay:10.37,2013-09-11 19:52:00,
2013-09-11 15:57:00,92.5,78.5,29.90,ESE,116,0.0,0.0,64,0.00,,,0.00,WeatherDisplay:10.37,2013-09-11 19:57:00,
2013-09-11 16:02:00,92.2,79.2,29.90,ESE,115,1.1,0.0,66,0.00,,,0.00,WeatherDisplay:10.37,2013-09-11 20:02:00,
2013-09-11 16:07:00,91.5,78.1,29.90,WSW,250,2.3,2.3,65,0.00,,,0.00,WeatherDisplay:10.37,2013-09-11 20:07:00,
2013-09-11 16:12:00,90.5,79.4,29.89,East,79,0.0,0.0,70,0.00,,,0.00,WeatherDisplay:10.37,2013-09-11 20:12:00,
2013-09-11 16:17:00,89.8,78.7,29.89,NNE,16,0.0,0.0,70,0.00,,,0.00,WeatherDisplay:10.37,2013-09-11 20:17:00,
2013-09-11 16:22:00,89.0,78.4,29.89,North,359,2.0,2.0,71,0.00,,,0.00,WeatherDisplay:10.37,2013-09-11 20:22:00,
2013-09-11 16:27:00,88.9,76.5,29.89,NNW,342,0.0,0.3,67,0.00,,,0.00,WeatherDisplay:10.37,2013-09-11 20:27:00,
2013-09-11 16:32:00,88.7,77.2,29.89,NNE,30,0.0,0.0,69,0.00,,,0.00,WeatherDisplay:10.37,2013-09-11 20:32:00,
2013-09-11 16:37:00,88.7,78.5,29.89,NW,314,0.0,0.0,72,0.00,,,0.00,WeatherDisplay:10.37,2013-09-11 20:37:00,
2013-09-11 16:42:00,88.5,77.9,29.89,NW,314,0.0,0.0,71,0.00,,,0.00,WeatherDisplay:10.37,2013-09-11 20:42:00,
2013-09-11 16:47:00,87.6,78.3,29.89,NW,314,0.0,0.0,74,0.00,,,0.00,WeatherDisplay:10.37,2013-09-11 20:47:00,
2013-09-11 16:52:00,86.8,77.9,29.89,NW,314,0.0,0.0,75,0.00,,,0.00,WeatherDisplay:10.37,2013-09-11 20:52:00,
2013-09-11 16:57:00,86.6,78.1,29.89,NW,314,0.0,0.0,76,0.00,,,0.00,WeatherDisplay:10.37,2013-09-11 20:57:00,
2013-09-11 17:02:00,86.7,78.2,29.89,NW,314,0.0,0.0,76,0.00,,,0.00,WeatherDisplay:10.37,2013-09-11 21:02:00,
2013-09-11 17:07:00,86.8,78.3,29.88,NW,315,0.0,0.0,76,0.00,,,0.00,WeatherDisplay:10.37,2013-09-11 21:07:00,
2013-09-11 17:12:00,86.8,78.3,29.88,WSW,249,0.0,0.0,76,0.00,,,0.00,WeatherDisplay:10.37,2013-09-11 21:12:00,
2013-09-11 17:17:00,86.9,78.4,29.89,WSW,249,0.0,0.0,76,0.00,,,0.00,WeatherDisplay:10.37,2013-09-11 21:17:00,
2013-09-11 17:22:00,87.4,78.9,29.89,WSW,249,0.0,0.0,76,0.00,,,0.00,WeatherDisplay:10.37,2013-09-11 21:22:00,
2013-09-11 17:27:00,87.7,78.4,29.89,SSE,156,0.0,0.0,74,0.00,,,0.00,WeatherDisplay:10.37,2013-09-11 21:27:00,
2013-09-11 17:32:00,87.3,77.6,29.89,ESE,120,3.5,3.5,73,0.00,,,0.00,WeatherDisplay:10.37,2013-09-11 21:32:00,
2013-09-11 17:37:00,87.1,77.4,29.90,SW,217,3.5,3.5,73,0.00,,,0.00,WeatherDisplay:10.37,2013-09-11 21:37:00,
2013-09-11 17:42:00,87.0,76.5,29.90,NNW,345,3.5,3.5,71,0.00,,,0.00,WeatherDisplay:10.37,2013-09-11 21:42:00,
2013-09-11 17:47:00,87.2,76.2,29.90,NE,34,1.1,1.1,70,0.00,,,0.00,WeatherDisplay:10.37,2013-09-11 21:47:00,
2013-09-11 17:52:00,87.4,76.0,29.90,West,274,3.5,3.5,69,0.00,,,0.00,WeatherDisplay:10.37,2013-09-11 21:52:00,
2013-09-11 17:57:00,87.4,75.5,29.90,WSW,243,1.1,1.1,68,0.00,,,0.00,WeatherDisplay:10.37,2013-09-11 21:57:00,
2013-09-11 18:02:00,87.2,76.6,29.91,SE,139,0.0,0.0,71,0.00,CLR,,0.00,WeatherDisplay:10.37,2013-09-11 22:02:00,
2013-09-11 18:07:00,87.1,74.8,29.91,East,90,2.3,2.3,67,0.00,CLR,,0.00,WeatherDisplay:10.37,2013-09-11 22:07:00,
2013-09-11 18:12:00,86.6,75.2,29.91,SSE,159,0.0,0.0,69,0.00,CLR,,0.00,WeatherDisplay:10.37,2013-09-11 22:12:00,
2013-09-11 18:17:00,86.2,75.7,29.92,SSE,159,0.0,0.0,71,0.00,CLR,,0.00,WeatherDisplay:10.37,2013-09-11 22:17:00,
2013-09-11 18:22:00,85.6,75.5,29.92,SSE,159,0.0,0.0,72,0.00,CLR,,0.00,WeatherDisplay:10.37,2013-09-11 22:22:00,
2013-09-11 18:27:00,85.0,75.8,29.92,SSE,159,0.0,0.0,74,0.00,CLR,,0.00,WeatherDisplay:10.37,2013-09-11 22:27:00,
2013-09-11 18:32:00,84.4,75.6,29.92,ENE,72,0.0,0.0,75,0.00,CLR,,0.00,WeatherDisplay:10.37,2013-09-11 22:32:00,
2013-09-11 18:37:00,83.8,75.8,29.92,ENE,72,0.0,0.0,77,0.00,CLR,,0.00,WeatherDisplay:10.37,2013-09-11 22:37:00,
2013-09-11 18:42:00,83.3,75.7,29.92,ENE,72,0.0,0.0,78,0.00,CLR,,0.00,WeatherDisplay:10.37,2013-09-11 22:42:00,
2013-09-11 18:47:00,82.8,75.6,29.92,ENE,72,0.0,0.0,79,0.00,CLR,,0.00,WeatherDisplay:10.37,2013-09-11 22:47:00,
2013-09-11 18:52:00,82.0,75.6,29.92,East,94,0.0,0.0,81,0.00,CLR,,0.00,WeatherDisplay:10.37,2013-09-11 22:52:00,
2013-09-11 18:57:00,81.3,75.6,29.92,East,95,0.0,0.0,83,0.00,CLR,,0.00,WeatherDisplay:10.37,2013-09-11 22:57:00,
2013-09-11 19:02:00,80.6,75.3,29.92,East,96,0.0,0.0,84,0.00,CLR,,0.00,WeatherDisplay:10.37,2013-09-11 23:02:00,
2013-09-11 19:07:00,79.9,74.6,29.92,ESE,110,0.0,0.0,84,0.00,CLR,,0.00,WeatherDisplay:10.37,2013-09-11 23:07:00,
2013-09-11 19:13:00,79.4,73.8,29.92,ESE,110,0.0,0.0,83,0.00,CLR,,0.00,WeatherDisplay:10.37,2013-09-11 23:13:00,
2013-09-11 19:18:00,79.0,73.7,29.92,ESE,107,0.0,0.2,84,0.00,CLR,,0.00,WeatherDisplay:10.37,2013-09-11 23:18:00,
2013-09-11 19:23:00,78.7,73.5,29.92,ESE,118,0.0,0.0,84,0.00,CLR,,0.00,WeatherDisplay:10.37,2013-09-11 23:23:00,
2013-09-11 19:28:00,78.3,73.1,29.92,SSE,156,0.0,0.0,84,0.00,CLR,,0.00,WeatherDisplay:10.37,2013-09-11 23:28:00,
2013-09-11 19:33:00,77.8,72.6,29.92,South,190,0.0,0.0,84,0.00,CLR,,0.00,WeatherDisplay:10.37,2013-09-11 23:33:00,
2013-09-11 19:38:00,77.6,72.7,29.92,SSE,149,0.0,0.0,85,0.00,CLR,,0.00,WeatherDisplay:10.37,2013-09-11 23:38:00,
2013-09-11 19:43:00,77.3,72.4,29.93,SSE,149,0.0,0.0,85,0.00,CLR,,0.00,WeatherDisplay:10.37,2013-09-11 23:43:00,
2013-09-11 19:48:00,77.1,72.2,29.93,SSE,161,0.0,0.0,85,0.00,CLR,,0.00,WeatherDisplay:10.37,2013-09-11 23:48:00,
2013-09-11 19:53:00,76.7,71.8,29.93,West,259,1.1,0.0,85,0.00,CLR,,0.00,WeatherDisplay:10.37,2013-09-11 23:53:00,
2013-09-11 19:58:00,76.5,71.7,29.93,SSE,150,0.0,0.0,85,0.00,,,0.00,WeatherDisplay:10.37,2013-09-11 23:58:00,
2013-09-11 20:03:00,76.4,71.9,29.93,SSE,150,0.0,0.0,86,0.00,,,0.00,WeatherDisplay:10.37,2013-09-12 00:03:00,
2013-09-11 20:08:00,76.2,71.4,29.93,SE,144,0.0,0.0,85,0.00,,,0.00,WeatherDisplay:10.37,2013-09-12 00:08:00,
2013-09-11 20:13:00,76.1,71.6,29.93,SW,218,1.1,0.0,86,0.00,,,0.00,WeatherDisplay:10.37,2013-09-12 00:13:00,
2013-09-11 20:18:00,76.0,71.8,29.93,ESE,105,0.0,0.0,87,0.00,,,0.00,WeatherDisplay:10.37,2013-09-12 00:18:00,
2013-09-11 20:23:00,75.9,71.4,29.93,WSW,240,0.0,0.0,86,0.00,,,0.00,WeatherDisplay:10.37,2013-09-12 00:23:00,
2013-09-11 20:28:00,76.0,71.5,29.93,North,4,1.0,1.0,86,0.00,,,0.00,WeatherDisplay:10.37,2013-09-12 00:28:00,
2013-09-11 20:33:00,76.0,71.5,29.93,SSW,195,1.1,0.0,86,0.00,,,0.00,WeatherDisplay:10.37,2013-09-12 00:33:00,
2013-09-11 20:39:00,76.0,71.8,29.92,North,352,1.0,0.0,87,0.00,,,0.00,WeatherDisplay:10.37,2013-09-12 00:39:00,
2013-09-11 20:44:00,75.9,71.8,29.93,SSW,195,1.1,0.0,87,0.00,,,0.00,WeatherDisplay:10.37,2013-09-12 00:44:00,
2013-09-11 20:49:00,75.6,71.8,29.93,SSW,195,0.0,0.0,88,0.00,,,0.00,WeatherDisplay:10.37,2013-09-12 00:49:00,
2013-09-11 20:54:00,75.3,71.5,29.94,SSW,195,0.0,0.0,88,0.00,,,0.00,WeatherDisplay:10.37,2013-09-12 00:54:00,
2013-09-11 20:59:00,75.0,71.2,29.94,East,82,3.5,3.5,88,0.00,,,0.00,WeatherDisplay:10.37,2013-09-12 00:59:00,
2013-09-11 21:04:00,75.4,70.6,29.94,SE,129,0.0,0.0,85,0.00,,,0.00,WeatherDisplay:10.37,2013-09-12 01:04:00,
2013-09-11 21:09:00,75.7,71.2,29.94,SSE,148,0.0,0.0,86,0.00,,,0.00,WeatherDisplay:10.37,2013-09-12 01:09:00,
2013-09-11 21:14:00,75.4,70.6,29.93,SSE,152,0.0,0.0,85,0.00,,,0.00,WeatherDisplay:10.37,2013-09-12 01:14:00,
2013-09-11 21:19:00,75.1,70.6,29.93,SSE,163,0.0,0.0,86,0.00,,,0.00,WeatherDisplay:10.37,2013-09-12 01:19:00,
2013-09-11 21:24:00,74.8,70.3,29.93,SE,136,0.0,0.0,86,0.00,,,0.00,WeatherDisplay:10.37,2013-09-12 01:24:00,
2013-09-11 21:29:00,74.5,70.0,29.93,ENE,70,0.0,0.0,86,0.00,,,0.00,WeatherDisplay:10.37,2013-09-12 01:29:00,
2013-09-11 21:34:00,74.4,69.9,29.93,ESE,123,1.1,1.1,86,0.00,,,0.00,WeatherDisplay:10.37,2013-09-12 01:34:00,
2013-09-11 21:39:00,74.3,70.2,29.93,ESE,122,0.0,0.0,87,0.00,,,0.00,WeatherDisplay:10.37,2013-09-12 01:39:00,
2013-09-11 21:44:00,74.1,69.6,29.93,NE,40,0.0,0.0,86,0.00,,,0.00,WeatherDisplay:10.37,2013-09-12 01:44:00,
2013-09-11 21:49:00,73.9,69.1,29.92,South,173,0.0,0.0,85,0.00,,,0.00,WeatherDisplay:10.37,2013-09-12 01:49:00,
2013-09-11 21:54:00,73.7,69.2,29.92,South,173,0.0,0.0,86,0.00,,,0.00,WeatherDisplay:10.37,2013-09-12 01:54:00,
2013-09-11 21:59:00,73.5,69.1,29.92,South,174,0.0,0.0,86,0.00,,,0.00,WeatherDisplay:10.37,2013-09-12 01:59:00,
2013-09-11 22:04:00,73.3,68.2,29.92,South,173,0.0,0.0,84,0.00,,,0.00,WeatherDisplay:10.37,2013-09-12 02:04:00,
2013-09-11 22:09:00,73.2,68.1,29.92,South,173,0.0,0.0,84,0.00,,,0.00,WeatherDisplay:10.37,2013-09-12 02:09:00,
2013-09-11 22:14:00,73.1,68.3,29.92,South,173,0.0,0.0,85,0.00,,,0.00,WeatherDisplay:10.37,2013-09-12 02:14:00,
2013-09-11 22:19:00,72.8,68.4,29.92,South,173,0.0,0.0,86,0.00,,,0.00,WeatherDisplay:10.37,2013-09-12 02:19:00,
2013-09-11 22:24:00,72.5,68.1,29.92,ESE,119,0.0,0.0,86,0.00,,,0.00,WeatherDisplay:10.37,2013-09-12 02:24:00,
2013-09-11 22:29:00,72.3,68.5,29.92,ESE,119,0.0,0.0,88,0.00,,,0.00,WeatherDisplay:10.37,2013-09-12 02:29:00,
2013-09-11 22:34:00,72.1,68.3,29.91,ESE,119,0.0,0.0,88,0.00,,,0.00,WeatherDisplay:10.37,2013-09-12 02:34:00,
2013-09-11 22:39:00,71.9,68.2,29.91,SE,145,2.3,2.3,88,0.00,,,0.00,WeatherDisplay:10.37,2013-09-12 02:39:00,
2013-09-11 22:44:00,71.7,68.3,29.91,SE,145,0.0,0.0,89,0.00,,,0.00,WeatherDisplay:10.37,2013-09-12 02:44:00,
2013-09-11 22:50:00,71.6,68.2,29.91,SE,145,0.0,0.1,89,0.00,,,0.00,WeatherDisplay:10.37,2013-09-12 02:50:00,
2013-09-11 22:55:00,71.5,68.1,29.91,SE,145,0.0,0.0,89,0.00,,,0.00,WeatherDisplay:10.37,2013-09-12 02:55:00,
2013-09-11 23:00:00,71.4,68.3,29.91,SE,145,0.0,0.0,90,0.00,,,0.00,WeatherDisplay:10.37,2013-09-12 03:00:00,
2013-09-11 23:05:00,71.2,68.1,29.90,SE,145,0.0,0.0,90,0.00,,,0.00,WeatherDisplay:10.37,2013-09-12 03:05:00,
2013-09-11 23:10:00,71.2,68.1,29.90,SSE,165,1.1,1.1,90,0.00,,,0.00,WeatherDisplay:10.37,2013-09-12 03:10:00,
2013-09-11 23:15:00,71.2,68.1,29.89,SSE,156,0.0,0.0,90,0.00,,,0.00,WeatherDisplay:10.37,2013-09-12 03:15:00,
2013-09-11 23:20:00,71.1,68.0,29.89,SSE,156,0.0,0.0,90,0.00,,,0.00,WeatherDisplay:10.37,2013-09-12 03:20:00,
2013-09-11 23:25:00,71.0,68.2,29.89,ESE,121,1.0,1.0,91,0.00,,,0.00,WeatherDisplay:10.37,2013-09-12 03:25:00,
2013-09-11 23:30:00,71.0,68.2,29.88,ENE,71,0.0,0.0,91,0.00,,,0.00,WeatherDisplay:10.37,2013-09-12 03:30:00,
2013-09-11 23:35:00,71.0,68.2,29.88,ENE,71,0.0,0.0,91,0.00,,,0.00,WeatherDisplay:10.37,2013-09-12 03:35:00,
2013-09-11 23:40:00,70.9,68.1,29.88,ENE,72,0.0,0.0,91,0.00,,,0.00,WeatherDisplay:10.37,2013-09-12 03:40:00,
2013-09-11 23:45:00,70.8,68.0,29.88,ENE,72,0.0,0.0,91,0.00,,,0.00,WeatherDisplay:10.37,2013-09-12 03:45:00,
2013-09-11 23:50:00,70.7,67.9,29.88,SE,138,0.0,0.0,91,0.00,,,0.00,WeatherDisplay:10.37,2013-09-12 03:50:00,
2013-09-11 23:55:00,70.7,68.3,29.88,SE,138,0.0,0.0,92,0.00,,,0.00,WeatherDisplay:10.37,2013-09-12 03:55:00,